createdAt,value
2022-09-23T00:01:33.133Z,20.05
2022-09-23T00:04:01.104Z,19.24
2022-09-23T00:06:30.264Z,18.29
2022-09-23T00:08:58.059Z,17.60
2022-09-23T00:11:28.803Z,17.03
2022-09-23T00:14:00.119Z,16.82
2022-09-23T00:16:34.373Z,17.99
2022-09-23T00:19:06.527Z,19.18
2022-09-23T00:21:34.255Z,19.65
2022-09-23T00:24:02.529Z,18.75
2022-09-23T00:26:30.661Z,17.78
2022-09-23T00:28:58.753Z,17.10
2022-09-23T00:31:28.994Z,16.62
2022-09-23T00:34:02.105Z,16.61
2022-09-23T00:36:32.651Z,18.06
2022-09-23T00:39:00.617Z,19.19
2022-09-23T00:41:28.536Z,19.04
2022-09-23T00:44:02.390Z,18.01
2022-09-23T00:46:37.116Z,17.13
2022-09-23T00:49:26.946Z,16.50
2022-09-23T00:52:06.145Z,16.59
2022-09-23T00:54:34.091Z,18.10
2022-09-23T00:57:05.878Z,19.28
2022-09-23T00:59:35.821Z,19.70
2022-09-23T01:02:09.473Z,18.76
2022-09-23T01:04:38.067Z,17.67
2022-09-23T01:07:05.869Z,16.87
2022-09-23T01:09:34.012Z,16.73
2022-09-23T01:12:10.257Z,18.17
2022-09-23T01:14:59.584Z,19.52
2022-09-23T01:17:39.551Z,19.86
2022-09-23T01:20:39.670Z,18.80
2022-09-23T01:24:03.458Z,17.69
2022-09-23T01:26:49.364Z,16.75
2022-09-23T01:29:39.500Z,16.73
2022-09-23T01:32:47.283Z,18.40
2022-09-23T01:35:20.610Z,19.70
2022-09-23T01:38:00.154Z,19.84
2022-09-23T01:40:42.708Z,18.68
2022-09-23T01:43:33.903Z,17.57
2022-09-23T01:46:10.057Z,16.76
2022-09-23T01:48:54.246Z,16.75
2022-09-23T01:51:38.823Z,18.32
2022-09-23T01:54:18.507Z,19.53
2022-09-23T01:57:01.744Z,19.78
2022-09-23T01:59:43.613Z,18.58
2022-09-23T02:02:16.988Z,17.52
2022-09-23T02:05:22.081Z,17.25
2022-09-23T02:08:09.020Z,18.75
2022-09-23T02:10:45.762Z,19.74
2022-09-23T02:13:34.765Z,19.93
2022-09-23T02:16:16.347Z,18.69
2022-09-23T02:18:53.322Z,17.43
2022-09-23T02:21:29.672Z,17.11
2022-09-23T02:24:15.190Z,18.54
2022-09-23T02:27:01.652Z,19.80
2022-09-23T02:30:16.495Z,20.07
2022-09-23T02:33:20.428Z,18.61
2022-09-23T02:36:08.170Z,17.39
2022-09-23T02:38:53.152Z,17.15
2022-09-23T02:41:34.806Z,18.55
2022-09-23T02:44:12.751Z,19.59
2022-09-23T02:46:47.023Z,20.18
2022-09-23T02:49:31.386Z,20.22
2022-09-23T02:52:04.795Z,19.05
2022-09-23T02:54:35.445Z,18.00
2022-09-23T02:57:06.830Z,17.19
2022-09-23T02:59:39.606Z,16.98
2022-09-23T03:02:44.799Z,18.33
2022-09-23T03:05:32.666Z,19.68
2022-09-23T03:08:43.542Z,20.31
2022-09-23T03:11:13.760Z,19.81
2022-09-23T03:13:53.618Z,18.68
2022-09-23T03:16:44.091Z,17.72
2022-09-23T03:19:33.328Z,17.43
2022-09-23T03:22:35.173Z,18.84
2022-09-23T03:25:10.992Z,19.93
2022-09-23T03:27:42.510Z,20.12
2022-09-23T03:30:13.269Z,18.99
2022-09-23T03:32:47.356Z,17.74
2022-09-23T03:35:15.271Z,17.26
2022-09-23T03:38:17.547Z,18.32
2022-09-23T03:40:50.979Z,19.58
2022-09-23T03:43:19.355Z,20.14
2022-09-23T03:45:48.038Z,20.12
2022-09-23T03:48:16.006Z,18.94
2022-09-23T03:50:44.563Z,17.79
2022-09-23T03:53:14.290Z,17.41
2022-09-23T03:55:43.228Z,18.54
2022-09-23T03:58:11.330Z,19.47
2022-09-23T04:00:39.626Z,20.04
2022-09-23T04:03:11.599Z,19.79
2022-09-23T04:05:39.864Z,18.53
2022-09-23T04:08:08.004Z,17.43
2022-09-23T04:10:36.183Z,16.95
2022-09-23T04:13:03.936Z,18.10
2022-09-23T04:15:31.689Z,19.24
2022-09-23T04:17:59.327Z,19.90
2022-09-23T04:20:29.119Z,20.02
2022-09-23T04:22:58.745Z,18.92
2022-09-23T04:25:26.457Z,17.78
2022-09-23T04:27:55.175Z,17.33
2022-09-23T04:30:23.026Z,18.45
2022-09-23T04:32:55.421Z,19.60
2022-09-23T04:35:23.294Z,20.00
2022-09-23T04:37:52.385Z,18.91
2022-09-23T04:40:20.150Z,17.75
2022-09-23T04:42:48.006Z,17.30
2022-09-23T04:45:16.456Z,18.50
2022-09-23T04:47:44.118Z,19.62
2022-09-23T04:50:14.868Z,20.21
2022-09-23T04:52:43.717Z,19.88
2022-09-23T04:55:11.555Z,18.66
2022-09-23T04:57:39.675Z,17.60
2022-09-23T05:00:09.076Z,17.25
2022-09-23T05:02:48.061Z,18.49
2022-09-23T05:05:27.053Z,19.68
2022-09-23T05:07:56.471Z,20.05
2022-09-23T05:10:24.214Z,19.13
2022-09-23T05:12:56.921Z,18.13
2022-09-23T05:15:25.155Z,17.75
2022-09-23T05:17:53.278Z,18.78
2022-09-23T05:20:21.638Z,19.73
2022-09-23T05:22:49.877Z,20.04
2022-09-23T05:25:17.887Z,18.99
2022-09-23T05:27:45.679Z,17.85
2022-09-23T05:30:13.635Z,17.42
2022-09-23T05:32:41.519Z,18.55
2022-09-23T05:35:09.386Z,19.56
2022-09-23T05:37:39.257Z,20.16
2022-09-23T05:40:07.656Z,20.15
2022-09-23T05:42:36.364Z,18.98
2022-09-23T05:45:07.683Z,17.78
2022-09-23T05:47:39.997Z,17.23
2022-09-23T05:50:10.403Z,18.36
2022-09-23T05:52:38.161Z,19.43
2022-09-23T05:55:07.097Z,19.97
2022-09-23T05:57:35.357Z,20.04
2022-09-23T06:00:04.892Z,19.01
2022-09-23T06:02:33.157Z,17.87
2022-09-23T06:05:01.158Z,17.52
2022-09-23T06:07:31.855Z,18.67
2022-09-23T06:09:59.692Z,19.76
2022-09-23T06:12:28.404Z,20.40
2022-09-23T06:14:56.177Z,20.24
2022-09-23T06:17:23.865Z,19.14
2022-09-23T06:19:51.992Z,18.06
2022-09-23T06:22:25.614Z,17.21
2022-09-23T06:24:53.532Z,17.08
2022-09-23T06:27:23.097Z,18.45
2022-09-23T06:29:52.587Z,19.62
2022-09-23T06:32:20.789Z,20.33
2022-09-23T06:34:51.902Z,20.49
2022-09-23T06:37:20.800Z,19.41
2022-09-23T06:39:49.392Z,18.26
2022-09-23T06:42:17.426Z,17.89
2022-09-23T06:44:45.126Z,19.01
2022-09-23T06:47:12.934Z,19.84
2022-09-23T06:49:41.766Z,20.43
2022-09-23T06:52:10.107Z,20.47
2022-09-23T06:54:39.117Z,19.26
2022-09-23T06:57:07.192Z,17.99
2022-09-23T06:59:35.586Z,17.52
2022-09-23T07:02:03.471Z,18.53
2022-09-23T07:04:31.538Z,19.60
2022-09-23T07:06:59.300Z,20.32
2022-09-23T07:09:29.140Z,20.75
2022-09-23T07:11:57.217Z,20.04
2022-09-23T07:14:25.357Z,18.79
2022-09-23T07:16:54.326Z,17.77
2022-09-23T07:19:22.128Z,17.46
2022-09-23T07:21:49.828Z,18.66
2022-09-23T07:24:18.121Z,19.82
2022-09-23T07:26:45.938Z,20.48
2022-09-23T07:29:15.375Z,20.63
2022-09-23T07:31:43.409Z,19.55
2022-09-23T07:34:11.914Z,18.42
2022-09-23T07:36:41.067Z,17.95
2022-09-23T07:39:12.149Z,19.06
2022-09-23T07:41:44.411Z,20.08
2022-09-23T07:44:13.298Z,20.65
2022-09-23T07:46:41.554Z,20.17
2022-09-23T07:49:10.795Z,18.96
2022-09-23T07:51:41.362Z,17.95
2022-09-23T07:54:14.762Z,17.59
2022-09-23T07:56:44.461Z,18.72
2022-09-23T07:59:18.573Z,19.67
2022-09-23T08:01:52.852Z,20.30
2022-09-23T08:04:30.982Z,20.73
2022-09-23T08:07:05.717Z,20.66
2022-09-23T08:09:43.191Z,19.47
2022-09-23T08:12:16.468Z,18.25
2022-09-23T08:14:45.408Z,17.79
2022-09-23T08:17:13.917Z,18.90
2022-09-23T08:19:42.224Z,19.98
2022-09-23T08:22:10.192Z,20.65
2022-09-23T08:24:38.261Z,20.77
2022-09-23T08:27:06.385Z,19.72
2022-09-23T08:29:35.182Z,18.58
2022-09-23T08:32:03.650Z,17.75
2022-09-23T08:34:31.688Z,17.54
2022-09-23T08:36:59.750Z,18.81
2022-09-23T08:39:27.516Z,19.90
2022-09-23T08:42:23.875Z,20.53
2022-09-23T08:45:01.966Z,20.56
2022-09-23T08:48:02.283Z,19.35
2022-09-23T08:51:01.624Z,18.13
2022-09-23T08:53:39.703Z,18.04
2022-09-23T08:56:22.407Z,19.36
2022-09-23T08:59:27.078Z,20.25
2022-09-23T09:02:22.632Z,20.81
2022-09-23T09:05:00.579Z,20.67
2022-09-23T09:07:37.498Z,19.39
2022-09-23T09:10:38.618Z,18.17
2022-09-23T09:13:32.739Z,17.94
2022-09-23T09:17:01.263Z,19.50
2022-09-23T09:19:51.972Z,20.59
2022-09-23T09:22:40.095Z,20.73
2022-09-23T09:25:54.527Z,19.50
2022-09-23T09:28:28.000Z,18.10
2022-09-23T09:31:01.844Z,17.83
2022-09-23T09:34:03.472Z,19.16
2022-09-23T09:36:47.264Z,20.39
2022-09-23T09:39:16.476Z,20.97
2022-09-23T09:41:51.926Z,20.98
2022-09-23T09:44:31.998Z,19.84
2022-09-23T09:47:29.062Z,18.61
2022-09-23T09:50:09.080Z,18.24
2022-09-23T09:52:38.271Z,19.55
2022-09-23T09:55:14.921Z,20.46
2022-09-23T09:58:05.929Z,21.03
2022-09-23T10:00:42.805Z,20.49
2022-09-23T10:03:26.450Z,19.21
2022-09-23T10:05:57.934Z,18.16
2022-09-23T10:08:35.268Z,17.89
2022-09-23T10:11:23.707Z,19.25
2022-09-23T10:14:18.991Z,20.37
2022-09-23T10:17:05.607Z,20.88
2022-09-23T10:19:43.955Z,20.06
2022-09-23T10:22:26.350Z,18.82
2022-09-23T10:24:57.474Z,18.27
2022-09-23T10:27:35.899Z,19.39
2022-09-23T10:30:27.553Z,20.35
2022-09-23T10:32:57.252Z,20.93
2022-09-23T10:35:28.279Z,20.99
2022-09-23T10:38:00.394Z,19.98
2022-09-23T10:40:59.819Z,18.89
2022-09-23T10:44:11.781Z,18.56
2022-09-23T10:47:04.182Z,20.21
2022-09-23T10:50:08.191Z,21.11
2022-09-23T10:52:58.033Z,20.97
2022-09-23T10:56:03.758Z,19.60
2022-09-23T10:59:14.340Z,18.48
2022-09-23T11:01:59.304Z,19.38
2022-09-23T11:04:52.683Z,20.36
2022-09-23T11:07:38.885Z,20.86
2022-09-23T11:10:35.241Z,20.31
2022-09-23T11:13:33.111Z,18.93
2022-09-23T11:16:12.753Z,18.60
2022-09-23T11:19:17.374Z,19.89
2022-09-23T11:22:23.487Z,20.82
2022-09-23T11:25:30.383Z,20.45
2022-09-23T11:28:17.861Z,18.93
2022-09-23T11:31:31.693Z,18.95
2022-09-23T11:34:52.699Z,20.18
2022-09-23T11:37:30.487Z,20.18
2022-09-23T11:40:15.583Z,18.83
2022-09-23T11:43:33.623Z,17.86
2022-09-23T11:46:23.674Z,18.22
2022-09-23T11:49:14.257Z,19.33
2022-09-23T11:52:06.448Z,19.19
2022-09-23T11:54:50.191Z,17.97
2022-09-23T11:57:47.072Z,17.66
2022-09-23T12:00:28.159Z,18.94
2022-09-23T12:03:30.441Z,19.92
2022-09-23T12:06:12.610Z,19.24
2022-09-23T12:08:40.668Z,18.17
2022-09-23T12:11:39.648Z,17.68
2022-09-23T12:14:41.805Z,18.86
2022-09-23T12:18:10.858Z,19.23
2022-09-23T12:21:05.768Z,17.88
2022-09-23T12:24:30.225Z,17.63
2022-09-23T12:27:07.215Z,19.08
2022-09-23T12:29:37.680Z,19.59
2022-09-23T12:32:10.199Z,18.89
2022-09-23T12:34:49.336Z,17.96
2022-09-23T12:37:38.142Z,17.86
2022-09-23T12:40:31.229Z,18.83
2022-09-23T12:43:01.280Z,19.44
2022-09-23T12:45:34.180Z,18.58
2022-09-23T12:48:26.910Z,17.69
2022-09-23T12:51:17.442Z,18.53
2022-09-23T12:53:53.195Z,19.16
2022-09-23T12:56:31.523Z,19.51
2022-09-23T12:59:14.250Z,18.74
2022-09-23T13:01:42.909Z,17.87
2022-09-23T13:04:53.820Z,18.80
2022-09-23T13:07:34.548Z,19.98
2022-09-23T13:10:34.053Z,20.14
2022-09-23T13:13:05.430Z,18.88
2022-09-23T13:15:37.701Z,17.88
2022-09-23T13:18:24.243Z,17.63
2022-09-23T13:20:56.896Z,19.00
2022-09-23T13:23:33.167Z,20.03
2022-09-23T13:26:12.812Z,20.20
2022-09-23T13:28:56.034Z,19.21
2022-09-23T13:31:24.197Z,18.04
2022-09-23T13:34:03.763Z,18.19
2022-09-23T13:36:46.532Z,19.57
2022-09-23T13:39:22.765Z,20.35
2022-09-23T13:41:56.469Z,19.87
2022-09-23T13:44:24.897Z,18.72
2022-09-23T13:47:01.010Z,18.02
2022-09-23T13:49:35.469Z,18.95
2022-09-23T13:52:04.221Z,19.94
2022-09-23T13:54:49.867Z,20.38
2022-09-23T13:57:34.140Z,19.41
2022-09-23T14:00:18.691Z,18.23
2022-09-23T14:02:47.505Z,17.91
2022-09-23T14:05:33.179Z,18.94
2022-09-23T14:08:02.214Z,20.05
2022-09-23T14:10:31.325Z,20.58
2022-09-23T14:12:59.781Z,20.39
2022-09-23T14:15:28.401Z,19.35
2022-09-23T14:18:07.885Z,18.31
2022-09-23T14:20:50.234Z,18.00
2022-09-23T14:23:19.109Z,19.34
2022-09-23T14:25:55.221Z,20.34
2022-09-23T14:28:27.754Z,20.89
2022-09-23T14:30:58.750Z,20.85
2022-09-23T14:33:32.496Z,19.70
2022-09-23T14:36:30.083Z,18.50
2022-09-23T14:39:12.587Z,18.20
2022-09-23T14:41:48.206Z,19.56
2022-09-23T14:44:25.204Z,20.39
2022-09-23T14:46:59.342Z,20.89
2022-09-23T14:49:28.138Z,20.90
2022-09-23T14:52:00.815Z,19.74
2022-09-23T14:54:44.091Z,18.63
2022-09-23T14:57:25.922Z,18.28
2022-09-23T15:00:09.289Z,19.51
2022-09-23T15:02:40.276Z,20.52
2022-09-23T15:05:18.521Z,20.84
2022-09-23T15:07:56.604Z,21.20
2022-09-23T15:10:33.772Z,20.59
2022-09-23T15:13:18.170Z,19.23
2022-09-23T15:15:47.354Z,18.56
2022-09-23T15:18:25.594Z,19.45
2022-09-23T15:21:02.910Z,20.19
2022-09-23T15:23:41.816Z,20.76
2022-09-23T15:26:25.868Z,20.88
2022-09-23T15:28:58.521Z,19.71
2022-09-23T15:31:26.806Z,18.62
2022-09-23T15:33:56.044Z,18.22
2022-09-23T15:36:27.989Z,19.34
2022-09-23T15:39:05.626Z,20.26
2022-09-23T15:41:34.031Z,20.87
2022-09-23T15:44:15.665Z,20.95
2022-09-23T15:46:52.222Z,19.84
2022-09-23T15:49:31.947Z,18.75
2022-09-23T15:52:02.224Z,18.38
2022-09-23T15:54:34.688Z,19.65
2022-09-23T15:57:02.766Z,20.73
2022-09-23T15:59:31.431Z,20.99
2022-09-23T16:02:06.785Z,20.13
2022-09-23T16:04:36.011Z,19.06
2022-09-23T16:07:05.869Z,18.76
2022-09-23T16:09:33.851Z,20.06
2022-09-23T16:12:03.342Z,21.09
2022-09-23T16:14:31.162Z,21.40
2022-09-23T16:16:58.920Z,20.50
2022-09-23T16:19:26.920Z,19.51
2022-09-23T16:21:54.637Z,18.69
2022-09-23T16:24:27.363Z,18.43
2022-09-23T16:27:00.018Z,19.74
2022-09-23T16:29:31.014Z,20.82
2022-09-23T16:32:00.969Z,21.45
2022-09-23T16:34:29.620Z,21.19
2022-09-23T16:36:57.329Z,20.12
2022-09-23T16:39:25.143Z,19.19
2022-09-23T16:41:53.023Z,18.84
2022-09-23T16:44:22.243Z,20.08
2022-09-23T16:46:50.753Z,21.28
2022-09-23T16:49:19.035Z,21.62
2022-09-23T16:51:48.293Z,20.63
2022-09-23T16:54:17.420Z,19.53
2022-09-23T16:56:45.864Z,19.08
2022-09-23T16:59:16.060Z,20.17
2022-09-23T17:02:03.384Z,21.20
2022-09-23T17:04:32.616Z,21.37
2022-09-23T17:07:00.617Z,20.26
2022-09-23T17:09:30.311Z,19.16
2022-09-23T17:12:36.754Z,18.68
2022-09-23T17:15:07.595Z,20.11
2022-09-23T17:17:37.552Z,21.07
2022-09-23T17:20:08.912Z,21.39
2022-09-23T17:22:38.367Z,20.45
2022-09-23T17:25:07.458Z,19.40
2022-09-23T17:27:37.302Z,18.88
2022-09-23T17:30:06.082Z,19.93
2022-09-23T17:32:34.239Z,20.86
2022-09-23T17:35:04.833Z,21.38
2022-09-23T17:37:33.372Z,21.40
2022-09-23T17:40:02.230Z,20.33
2022-09-23T17:42:33.449Z,19.18
2022-09-23T17:45:02.277Z,18.71
2022-09-23T17:47:33.370Z,19.86
2022-09-23T17:50:02.064Z,20.91
2022-09-23T17:52:30.059Z,21.32
2022-09-23T17:54:57.733Z,20.36
2022-09-23T17:57:25.820Z,19.15
2022-09-23T17:59:53.894Z,18.55
2022-09-23T18:02:25.678Z,19.68
2022-09-23T18:04:53.985Z,20.79
2022-09-23T18:07:21.785Z,21.12
2022-09-23T18:09:49.543Z,20.11
2022-09-23T18:12:17.338Z,18.99
2022-09-23T18:14:45.366Z,18.55
2022-09-23T18:17:14.050Z,19.71
2022-09-23T18:19:42.589Z,20.75
2022-09-23T18:22:10.369Z,21.04
2022-09-23T18:24:41.167Z,20.05
2022-09-23T18:27:09.667Z,18.94
2022-09-23T18:29:37.379Z,18.10
2022-09-23T18:32:05.152Z,17.94
2022-09-23T18:34:35.533Z,19.37
2022-09-23T18:37:06.340Z,20.54
2022-09-23T18:39:43.482Z,20.33
2022-09-23T18:42:12.052Z,19.24
2022-09-23T18:44:40.787Z,18.24
2022-09-23T18:47:28.645Z,17.92
2022-09-23T18:50:15.841Z,19.34
2022-09-23T18:52:44.474Z,20.43
2022-09-23T18:55:12.742Z,20.35
2022-09-23T18:57:42.480Z,19.23
2022-09-23T19:00:11.425Z,18.18
2022-09-23T19:02:39.597Z,17.41
2022-09-23T19:05:09.464Z,17.31
2022-09-23T19:07:37.332Z,18.67
2022-09-23T19:10:05.989Z,19.80
2022-09-23T19:12:34.610Z,20.12
2022-09-23T19:15:04.953Z,19.10
2022-09-23T19:17:34.181Z,17.93
2022-09-23T19:20:02.314Z,17.04
2022-09-23T19:22:31.893Z,16.77
2022-09-23T19:25:06.110Z,18.10
2022-09-23T19:27:35.949Z,19.23
2022-09-23T19:30:05.454Z,19.78
2022-09-23T19:32:34.795Z,20.17
2022-09-23T19:35:03.022Z,20.07
2022-09-23T19:37:31.047Z,18.94
2022-09-23T19:39:58.815Z,17.79
2022-09-23T19:42:28.243Z,16.94
2022-09-23T19:44:56.083Z,16.87
2022-09-23T19:47:24.760Z,18.23
2022-09-23T19:49:52.662Z,19.33
2022-09-23T19:52:20.424Z,19.97
2022-09-23T19:54:48.861Z,20.11
2022-09-23T19:57:19.522Z,19.00
2022-09-23T19:59:47.288Z,17.77
2022-09-23T20:02:15.701Z,17.23
2022-09-23T20:04:43.639Z,18.37
2022-09-23T20:07:11.539Z,19.41
2022-09-23T20:09:39.588Z,20.00
2022-09-23T20:12:08.365Z,20.11
2022-09-23T20:14:36.029Z,19.05
2022-09-23T20:17:04.101Z,17.98
2022-09-23T20:19:32.171Z,17.20
2022-09-23T20:22:18.533Z,17.05
2022-09-23T20:24:56.888Z,18.60
2022-09-23T20:27:25.762Z,19.63
2022-09-23T20:29:53.628Z,20.09
2022-09-23T20:32:22.513Z,20.09
2022-09-23T20:34:51.012Z,18.99
2022-09-23T20:37:25.067Z,17.83
2022-09-23T20:39:53.305Z,16.92
2022-09-23T20:42:24.444Z,16.19
2022-09-23T20:44:52.530Z,16.10
2022-09-23T20:47:24.730Z,17.51
2022-09-23T20:49:53.764Z,18.71
2022-09-23T20:52:22.962Z,19.46
2022-09-23T20:54:53.005Z,19.97
2022-09-23T20:57:21.151Z,19.98
2022-09-23T20:59:49.749Z,18.86
2022-09-23T21:02:17.700Z,17.68
2022-09-23T21:04:45.962Z,17.32
2022-09-23T21:07:13.781Z,18.84
2022-09-23T21:09:42.421Z,19.84
2022-09-23T21:12:10.333Z,20.05
2022-09-23T21:14:38.425Z,19.00
2022-09-23T21:17:07.209Z,17.87
2022-09-23T21:19:37.624Z,17.03
2022-09-23T21:22:05.391Z,16.77
2022-09-23T21:25:03.838Z,18.08
2022-09-23T21:27:23.371Z,19.35
2022-09-23T21:29:51.571Z,19.92
2022-09-23T21:32:19.328Z,19.85
2022-09-23T21:34:47.630Z,18.74
2022-09-23T21:37:15.347Z,17.58
2022-09-23T21:40:03.146Z,17.11
2022-09-23T21:42:30.855Z,18.32
2022-09-23T21:44:58.640Z,19.12
2022-09-23T21:47:26.771Z,19.33
2022-09-23T21:49:54.486Z,19.14
2022-09-23T21:52:22.406Z,17.91
2022-09-23T21:54:50.126Z,17.61
2022-09-23T21:57:17.806Z,18.35
2022-09-23T21:59:45.557Z,18.90
2022-09-23T22:02:13.769Z,19.28
2022-09-23T22:04:41.540Z,19.00
2022-09-23T22:07:10.696Z,17.88
2022-09-23T22:09:40.176Z,17.20
2022-09-23T22:12:11.694Z,18.06
2022-09-23T22:14:40.179Z,18.85
2022-09-23T22:17:11.372Z,19.40
2022-09-23T22:19:45.990Z,19.65
2022-09-23T22:22:18.046Z,18.60
2022-09-23T22:24:48.278Z,17.31
2022-09-23T22:27:19.629Z,17.42
2022-09-23T22:30:09.382Z,18.47
2022-09-23T22:32:54.364Z,19.21
2022-09-23T22:35:22.714Z,19.58
2022-09-23T22:37:50.831Z,19.08
2022-09-23T22:40:18.832Z,17.68
2022-09-23T22:42:46.703Z,17.08
2022-09-23T22:45:17.317Z,18.10
2022-09-23T22:47:46.803Z,18.98
2022-09-23T22:50:15.475Z,19.53
2022-09-23T22:52:44.906Z,19.70
2022-09-23T22:55:13.339Z,18.48
2022-09-23T22:57:41.943Z,17.40
2022-09-23T23:00:12.751Z,17.75
2022-09-23T23:02:42.813Z,18.46
2022-09-23T23:05:11.466Z,18.82
2022-09-23T23:07:40.575Z,19.06
2022-09-23T23:10:10.536Z,19.14
2022-09-23T23:12:39.537Z,19.32
2022-09-23T23:15:12.766Z,19.08
2022-09-23T23:17:43.495Z,17.83
2022-09-23T23:20:11.582Z,17.22
2022-09-23T23:22:39.657Z,18.16
2022-09-23T23:25:09.818Z,18.99
2022-09-23T23:27:37.656Z,19.38
2022-09-23T23:30:08.846Z,19.40
2022-09-23T23:32:36.937Z,18.07
2022-09-23T23:35:06.036Z,17.28
2022-09-23T23:37:34.346Z,17.90
2022-09-23T23:40:03.433Z,18.19
2022-09-23T23:42:31.582Z,18.48
2022-09-23T23:44:59.717Z,18.70
2022-09-23T23:47:27.584Z,18.77
2022-09-23T23:49:55.312Z,18.74
2022-09-23T23:52:23.112Z,18.63
2022-09-23T23:54:51.826Z,18.53
2022-09-23T23:57:19.522Z,18.60
2022-09-23T23:59:47.321Z,18.74
